Time;durP1;ratioP1;P1;durP2;ratioP2;P2;SDS_P1;SDS_P2;PMS_P1;PMS_P2;Temp;Humidity;BMP_temperature;BMP_pressure;BME280_temperature;BME280_humidity;BME280_pressure;Samples;Min_cycle;Max_cycle;Signal;HPM_P1;HPM_P2
2020/12/23 00:00:14;;;;;;;1.00;0.70;;;;;;;12.16;67.42;95999.81;4768856;30;20088;-42
2020/12/23 00:02:42;;;;;;;0.65;0.50;;;;;;;12.16;67.31;95988.19;4768773;30;20052;-43
2020/12/23 00:05:17;;;;;;;0.75;0.60;;;;;;;12.24;67.10;96000.81;4770149;30;20112;-40
2020/12/23 00:07:44;;;;;;;0.52;0.52;;;;;;;12.11;67.29;95993.81;4770902;30;20059;-40
2020/12/23 00:10:11;;;;;;;1.38;0.60;;;;;;;12.16;67.22;95990.88;4770634;30;20436;-42
2020/12/23 00:12:39;;;;;;;0.52;0.40;;;;;;;12.18;66.95;95982.41;4768339;30;20139;-41
2020/12/23 00:15:07;;;;;;;0.85;0.60;;;;;;;12.19;66.60;95979.34;4768745;30;20155;-43
2020/12/23 00:17:36;;;;;;;0.90;0.52;;;;;;;12.20;66.78;95986.34;4769974;29;20056;-41
2020/12/23 00:20:04;;;;;;;0.35;0.35;;;;;;;12.09;66.91;95988.75;4769775;30;20086;-44
2020/12/23 00:22:30;;;;;;;0.88;0.60;;;;;;;12.14;66.80;95977.66;4769086;30;20135;-42
2020/12/23 00:24:56;;;;;;;1.42;0.50;;;;;;;12.20;66.51;95997.22;4769905;30;20056;-41
2020/12/23 00:27:23;;;;;;;0.55;0.50;;;;;;;12.13;66.32;95984.22;4769139;30;20071;-42
2020/12/23 00:29:49;;;;;;;1.50;0.65;;;;;;;12.12;66.48;95981.84;4769457;30;20059;-42
2020/12/23 00:32:20;;;;;;;0.88;0.60;;;;;;;12.18;66.33;95979.69;4769042;30;20135;-43
2020/12/23 00:34:47;;;;;;;0.40;0.40;;;;;;;12.09;66.18;95975.19;4769394;29;20064;-42
2020/12/23 00:37:13;;;;;;;0.93;0.47;;;;;;;12.14;66.03;95974.94;4769364;30;20086;-43
2020/12/23 00:39:40;;;;;;;0.85;0.65;;;;;;;12.18;65.80;95964.19;4768980;30;20086;-41
2020/12/23 00:42:06;;;;;;;0.93;0.60;;;;;;;12.12;66.00;95974.50;4769379;30;20579;-42
2020/12/23 00:44:33;;;;;;;0.60;0.60;;;;;;;12.13;65.73;95975.28;4768058;30;20060;-41
2020/12/23 00:46:59;;;;;;;0.68;0.50;;;;;;;12.09;65.98;95956.22;4769732;29;20452;-40
2020/12/23 00:49:26;;;;;;;0.75;0.60;;;;;;;12.03;65.96;95970.34;4753831;30;20070;-41
2020/12/23 00:51:52;;;;;;;0.50;0.47;;;;;;;12.08;65.64;95960.03;4768439;30;20048;-42
2020/12/23 00:54:19;;;;;;;0.60;0.60;;;;;;;12.16;65.45;95955.63;4769298;29;20063;-41
2020/12/23 00:56:46;;;;;;;0.90;0.52;;;;;;;11.97;65.58;95942.66;4767713;30;20066;-43
2020/12/23 00:59:12;;;;;;;0.52;0.52;;;;;;;12.00;65.78;95955.53;4767921;30;20241;-43
2020/12/23 01:01:39;;;;;;;1.45;0.60;;;;;;;12.13;65.25;95959.81;4768300;30;20058;-42
2020/12/23 01:04:05;;;;;;;1.70;0.60;;;;;;;12.15;65.05;95967.59;4768609;30;20063;-44
2020/12/23 01:06:31;;;;;;;0.73;0.52;;;;;;;12.13;65.00;95964.44;4769055;29;20134;-42
2020/12/23 01:08:58;;;;;;;0.80;0.50;;;;;;;11.92;65.88;95964.56;4769287;30;20087;-42
2020/12/23 01:11:24;;;;;;;0.57;0.40;;;;;;;12.09;65.39;95960.81;4769118;30;20067;-43
2020/12/23 01:13:51;;;;;;;0.95;0.45;;;;;;;12.16;64.56;95950.22;4769283;30;20531;-43
2020/12/23 01:16:23;;;;;;;0.43;0.43;;;;;;;11.87;65.24;95930.34;4769061;30;20079;-41
2020/12/23 01:18:50;;;;;;;0.82;0.50;;;;;;;12.14;64.38;95952.47;4767343;30;20117;-41
2020/12/23 01:21:16;;;;;;;1.38;0.60;;;;;;;12.01;65.31;95964.44;4768653;29;20099;-43
2020/12/23 01:23:43;;;;;;;0.60;0.50;;;;;;;12.14;64.68;95963.31;4768407;30;20063;-41
2020/12/23 01:26:10;;;;;;;0.65;0.50;;;;;;;12.18;64.41;95958.78;4771490;30;20134;-42
2020/12/23 01:28:37;;;;;;;0.70;0.40;;;;;;;12.04;64.66;95961.06;4774124;30;20059;-43
2020/12/23 01:31:05;;;;;;;0.75;0.50;;;;;;;12.11;64.70;95953.94;4774735;30;20051;-42
2020/12/23 01:33:32;;;;;;;1.55;0.50;;;;;;;12.12;64.18;95952.81;4772623;29;20093;-42
2020/12/23 01:35:59;;;;;;;0.52;0.50;;;;;;;12.25;64.03;95953.59;4756628;30;20101;-43
2020/12/23 01:38:26;;;;;;;1.38;0.50;;;;;;;12.26;63.71;95947.03;4771474;29;20063;-42
2020/12/23 01:41:00;;;;;;;1.77;0.60;;;;;;;12.13;64.10;95956.31;4770939;30;20426;-41
2020/12/23 01:43:27;;;;;;;0.98;0.70;;;;;;;12.12;64.00;95952.81;4773082;30;20554;-41
2020/12/23 01:45:55;;;;;;;1.00;0.63;;;;;;;12.16;64.16;95952.91;4771017;30;20088;-43
2020/12/23 01:48:25;;;;;;;1.45;0.70;;;;;;;12.10;64.28;95957.78;4771615;30;20079;-41
2020/12/23 01:50:51;;;;;;;0.85;0.50;;;;;;;12.06;64.44;95958.81;4771917;30;20151;-43
2020/12/23 01:53:18;;;;;;;1.05;0.50;;;;;;;12.12;64.18;95966.38;4772331;29;20059;-41
2020/12/23 01:55:45;;;;;;;0.52;0.52;;;;;;;12.16;63.97;95958.34;4772150;30;20059;-45
2020/12/23 01:58:13;;;;;;;1.05;0.60;;;;;;;12.22;63.83;95956.97;4772519;29;20457;-43
2020/12/23 02:00:41;;;;;;;2.42;0.47;;;;;;;12.20;63.57;95953.03;4770731;30;20055;-44
2020/12/23 02:03:10;;;;;;;0.75;0.47;;;;;;;11.86;64.55;95942.34;4770567;30;20052;-43
2020/12/23 02:05:38;;;;;;;0.70;0.40;;;;;;;12.01;64.50;95950.91;4772840;30;20067;-43
2020/12/23 02:08:06;;;;;;;1.08;0.45;;;;;;;11.95;64.33;95944.13;4757512;30;20056;-40
2020/12/23 02:10:32;;;;;;;0.77;0.50;;;;;;;11.99;64.37;95953.16;4772186;30;20060;-42
2020/12/23 02:12:59;;;;;;;0.57;0.40;;;;;;;12.08;64.06;95951.88;4771492;29;20047;-42
2020/12/23 02:15:26;;;;;;;0.43;0.43;;;;;;;12.16;63.42;95931.22;4771816;29;20093;-41
2020/12/23 02:17:53;;;;;;;0.60;0.52;;;;;;;11.97;63.72;95929.09;4771305;30;20502;-43
2020/12/23 02:20:20;;;;;;;0.50;0.45;;;;;;;12.12;63.70;95950.09;4770007;30;20056;-44
2020/12/23 02:22:46;;;;;;;1.08;0.80;;;;;;;12.00;64.32;95949.31;4771291;29;20059;-42
2020/12/23 02:25:14;;;;;;;0.70;0.60;;;;;;;12.01;63.96;95953.59;4771356;29;20511;-42
2020/12/23 02:27:42;;;;;;;0.95;0.70;;;;;;;12.04;63.86;95942.06;4769938;30;20070;-42
2020/12/23 02:30:10;;;;;;;1.17;0.50;;;;;;;12.14;63.35;95945.09;4771309;30;20075;-41
2020/12/23 02:32:36;;;;;;;0.60;0.50;;;;;;;12.16;63.14;95937.44;4770912;30;20056;-42
2020/12/23 02:35:05;;;;;;;0.52;0.40;;;;;;;12.01;63.75;95935.41;4771050;30;20113;-46
2020/12/23 02:37:32;;;;;;;0.77;0.50;;;;;;;12.16;63.37;95936.66;4754326;30;20057;-44
2020/12/23 02:39:58;;;;;;;0.73;0.68;;;;;;;12.09;63.42;95930.97;4771409;30;20454;-41
2020/12/23 02:42:25;;;;;;;0.50;0.50;;;;;;;12.04;63.46;95937.44;4769866;29;20051;-41
2020/12/23 02:44:57;;;;;;;0.98;0.47;;;;;;;12.11;63.33;95928.72;4770251;30;20052;-41
2020/12/23 02:47:24;;;;;;;0.40;0.40;;;;;;;12.09;63.43;95925.56;4770800;30;20133;-43
2020/12/23 02:49:51;;;;;;;0.77;0.43;;;;;;;12.05;63.44;95921.97;4771083;30;20433;-43
2020/12/23 02:52:17;;;;;;;0.40;0.40;;;;;;;11.93;63.80;95915.44;4770598;30;20047;-43
2020/12/23 02:54:44;;;;;;;0.60;0.43;;;;;;;12.03;63.46;95924.25;4770847;30;20143;-41
2020/12/23 02:57:11;;;;;;;0.52;0.50;;;;;;;12.01;63.43;95923.78;4770804;29;20055;-41
2020/12/23 02:59:39;;;;;;;0.77;0.47;;;;;;;11.91;63.67;95914.19;4770752;30;20122;-41
2020/12/23 03:02:06;;;;;;;0.43;0.40;;;;;;;11.97;63.74;95910.13;4770720;29;20089;-43
2020/12/23 03:04:33;;;;;;;0.93;0.38;;;;;;;11.90;63.68;95923.47;4771380;29;20058;-41
2020/12/23 03:07:00;;;;;;;0.50;0.43;;;;;;;12.01;63.40;95921.84;4769616;30;20572;-41
2020/12/23 03:09:27;;;;;;;0.80;0.57;;;;;;;12.01;63.30;95921.84;4773250;30;20055;-40
2020/12/23 03:11:53;;;;;;;0.35;0.32;;;;;;;12.02;63.16;95914.50;4771816;30;20056;-41
2020/12/23 03:14:20;;;;;;;0.80;0.45;;;;;;;12.05;63.26;95905.69;4771646;30;20521;-41
2020/12/23 03:16:46;;;;;;;0.57;0.30;;;;;;;11.80;63.01;95856.91;4773708;29;20055;-41
2020/12/23 03:19:13;;;;;;;0.75;0.50;;;;;;;12.10;62.82;95891.91;4772952;29;20060;-44
2020/12/23 03:21:39;;;;;;;0.60;0.40;;;;;;;12.17;62.68;95894.81;4772134;30;20092;-41
2020/12/23 03:24:06;;;;;;;0.63;0.45;;;;;;;12.21;62.25;95889.50;4787568;24;20139;-43
2020/12/23 03:26:32;;;;;;;0.50;0.50;;;;;;;12.16;62.59;95885.91;4768848;30;20071;-41
2020/12/23 03:28:59;;;;;;;0.60;0.47;;;;;;;12.22;62.55;95883.75;4769217;29;20060;-41
2020/12/23 03:31:27;;;;;;;1.40;0.50;;;;;;;12.05;63.09;95886.69;4769656;30;20530;-40
2020/12/23 03:33:53;;;;;;;1.63;1.10;;;;;;;12.30;62.21;95880.09;4769789;30;20585;-41
2020/12/23 03:36:20;;;;;;;0.50;0.50;;;;;;;12.23;62.28;95873.69;4769479;30;20105;-45
2020/12/23 03:38:46;;;;;;;0.90;0.60;;;;;;;12.23;62.44;95879.09;4768847;29;20055;-41
2020/12/23 03:41:12;;;;;;;0.73;0.50;;;;;;;12.29;62.26;95873.09;4769542;30;20056;-45
2020/12/23 03:43:39;;;;;;;1.48;0.60;;;;;;;12.35;61.98;95870.94;4769766;30;20060;-42
2020/12/23 03:46:06;;;;;;;0.35;0.35;;;;;;;12.33;62.18;95876.69;4769668;30;20473;-43
2020/12/23 03:48:32;;;;;;;0.38;0.38;;;;;;;12.18;62.51;95882.81;4768585;30;20135;-41
2020/12/23 03:50:59;;;;;;;0.60;0.47;;;;;;;12.38;62.06;95881.06;4769341;30;20537;-42
2020/12/23 03:53:25;;;;;;;0.82;0.50;;;;;;;12.32;61.91;95869.69;4769175;30;20063;-44
2020/12/23 03:55:52;;;;;;;0.75;0.30;;;;;;;12.22;62.51;95878.31;4769382;30;20058;-40
2020/12/23 03:58:18;;;;;;;0.40;0.40;;;;;;;12.22;61.88;95872.06;4768624;30;20105;-43
2020/12/23 04:00:44;;;;;;;1.17;0.75;;;;;;;12.37;61.96;95874.06;4769278;30;20056;-44
2020/12/23 04:03:11;;;;;;;0.68;0.50;;;;;;;12.29;62.24;95872.31;4769234;30;20113;-45
2020/12/23 04:05:38;;;;;;;1.50;0.70;;;;;;;12.26;62.10;95876.50;4768966;30;20121;-42
2020/12/23 04:08:05;;;;;;;0.40;0.40;;;;;;;12.28;62.06;95865.28;4768506;29;20181;-42
2020/12/23 04:10:32;;;;;;;0.50;0.50;;;;;;;12.18;62.52;95860.34;4769492;29;20059;-43
2020/12/23 04:12:59;;;;;;;1.10;0.43;;;;;;;12.12;62.46;95867.91;4769229;30;20079;-41
2020/12/23 04:15:26;;;;;;;1.30;0.50;;;;;;;11.93;63.47;95861.22;4769210;29;20147;-43
2020/12/23 04:17:54;;;;;;;1.08;0.52;;;;;;;12.12;62.65;95860.59;4768585;30;20106;-42
2020/12/23 04:20:21;;;;;;;1.88;0.60;;;;;;;12.14;62.54;95857.53;4769105;29;20083;-42
2020/12/23 04:22:47;;;;;;;0.43;0.40;;;;;;;12.21;62.27;95855.00;4769012;30;20055;-43
2020/12/23 04:25:14;;;;;;;1.25;0.50;;;;;;;12.14;62.54;95854.81;4768883;30;20079;-44
2020/12/23 04:27:40;;;;;;;1.33;0.40;;;;;;;12.03;62.90;95842.88;4768156;30;20055;-44
2020/12/23 04:30:08;;;;;;;0.40;0.40;;;;;;;12.12;62.79;95851.66;4768965;30;20063;-42
2020/12/23 04:32:36;;;;;;;0.52;0.45;;;;;;;12.13;62.59;95853.25;4768622;30;20056;-43
2020/12/23 04:35:05;;;;;;;0.50;0.45;;;;;;;12.14;62.43;95849.41;4769067;30;20060;-43
2020/12/23 04:37:33;;;;;;;1.00;0.60;;;;;;;12.15;62.69;95846.34;4768111;30;20082;-43
2020/12/23 04:40:04;;;;;;;0.82;0.60;;;;;;;12.12;62.70;95849.75;4768536;29;20083;-44
2020/12/23 04:42:32;;;;;;;0.60;0.40;;;;;;;12.20;62.31;95849.94;4767607;29;20088;-43
2020/12/23 04:45:00;;;;;;;1.13;0.65;;;;;;;12.32;61.94;95845.28;4768801;30;20491;-43
2020/12/23 04:47:30;;;;;;;0.60;0.57;;;;;;;12.30;61.96;95841.31;4767875;30;20082;-44
2020/12/23 04:49:57;;;;;;;0.70;0.68;;;;;;;12.30;62.00;95839.38;4768673;30;20087;-43
2020/12/23 04:52:31;;;;;;;0.50;0.47;;;;;;;12.32;61.90;95839.06;4768484;30;20135;-43
2020/12/23 04:54:59;;;;;;;0.77;0.50;;;;;;;12.32;61.92;95839.06;4768751;30;20071;-43
2020/12/23 04:57:27;;;;;;;0.90;0.68;;;;;;;12.12;62.40;95825.34;4767845;29;20618;-43
2020/12/23 04:59:55;;;;;;;1.40;0.80;;;;;;;12.18;62.24;95828.56;4768615;30;20522;-44
2020/12/23 05:02:25;;;;;;;1.35;0.60;;;;;;;12.13;62.24;95826.13;4772127;30;20066;-44
2020/12/23 05:04:52;;;;;;;0.88;0.60;;;;;;;12.14;62.25;95833.91;4771973;30;20298;-41
2020/12/23 05:07:20;;;;;;;0.73;0.50;;;;;;;12.33;61.79;95829.78;4771844;30;20091;-42
2020/12/23 05:09:50;;;;;;;0.57;0.50;;;;;;;12.47;61.13;95826.66;4772187;30;20206;-41
2020/12/23 05:12:18;;;;;;;0.68;0.40;;;;;;;12.28;61.33;95817.22;4770772;30;20548;-42
2020/12/23 05:14:45;;;;;;;0.40;0.40;;;;;;;12.17;61.79;95813.44;4770612;30;20055;-41
2020/12/23 05:17:11;;;;;;;0.73;0.50;;;;;;;12.26;61.55;95814.09;4772112;30;20138;-40
2020/12/23 05:19:40;;;;;;;1.02;0.60;;;;;;;12.21;61.76;95819.75;4771530;30;20066;-41
2020/12/23 05:22:08;;;;;;;0.65;0.40;;;;;;;12.30;61.45;95806.84;4772024;29;20499;-42
2020/12/23 05:24:38;;;;;;;0.82;0.50;;;;;;;12.26;61.47;95821.44;4771948;30;20135;-42
2020/12/23 05:27:06;;;;;;;1.15;0.45;;;;;;;12.40;61.13;95819.13;4771546;30;20090;-43
2020/12/23 05:29:33;;;;;;;0.47;0.47;;;;;;;12.49;60.77;95827.13;4771360;30;20068;-42
2020/12/23 05:32:04;;;;;;;1.00;0.50;;;;;;;12.50;60.62;95825.97;4771516;30;20052;-42
2020/12/23 05:34:34;;;;;;;1.17;0.52;;;;;;;12.55;60.33;95823.78;4771497;30;20063;-42
2020/12/23 05:37:02;;;;;;;0.43;0.40;;;;;;;12.42;60.81;95818.78;4771741;30;20146;-44
2020/12/23 05:39:31;;;;;;;1.13;0.50;;;;;;;12.45;60.82;95815.38;4770757;30;20135;-43
2020/12/23 05:42:02;;;;;;;0.63;0.50;;;;;;;12.57;60.40;95815.28;4771378;30;20158;-43
2020/12/23 05:44:29;;;;;;;0.38;0.38;;;;;;;12.40;60.70;95811.75;4771756;30;20060;-45
2020/12/23 05:46:55;;;;;;;0.43;0.43;;;;;;;12.50;60.57;95818.59;4771574;30;20265;-43
2020/12/23 05:49:24;;;;;;;1.02;0.50;;;;;;;12.40;60.76;95827.25;4770742;30;20055;-46
2020/12/23 05:51:52;;;;;;;0.43;0.40;;;;;;;12.46;60.30;95809.59;4771281;30;20048;-43
2020/12/23 05:54:21;;;;;;;1.20;0.43;;;;;;;12.52;60.51;95818.28;4770919;29;20117;-43
2020/12/23 05:56:52;;;;;;;0.80;0.50;;;;;;;12.56;60.53;95809.09;4771267;30;20101;-42
2020/12/23 05:59:20;;;;;;;0.30;0.30;;;;;;;12.33;60.98;95813.50;4770601;30;20097;-44
2020/12/23 06:01:48;;;;;;;0.55;0.40;;;;;;;12.50;60.45;95809.69;4771199;29;20576;-43
2020/12/23 06:04:16;;;;;;;0.52;0.47;;;;;;;12.61;60.05;95803.41;4770869;30;20134;-44
2020/12/23 06:07:06;;;;;;;0.75;0.50;;;;;;;12.66;59.99;95799.63;4771336;30;20144;-43
2020/12/23 06:09:38;;;;;;;0.60;0.50;;;;;;;12.69;59.53;95798.94;4770357;30;20066;-43
2020/12/23 06:12:16;;;;;;;0.95;0.60;;;;;;;12.73;59.63;95810.69;4770748;30;20056;-42
2020/12/23 06:14:53;;;;;;;0.30;0.30;;;;;;;12.69;59.58;95804.38;4769780;30;20113;-43
2020/12/23 06:17:23;;;;;;;1.15;0.45;;;;;;;12.74;59.43;95811.47;4769154;30;20059;-42
2020/12/23 06:19:54;;;;;;;0.73;0.47;;;;;;;12.75;59.33;95811.13;4770955;30;20455;-40
2020/12/23 06:22:23;;;;;;;0.75;0.40;;;;;;;12.61;59.90;95789.06;4770937;30;20261;-40
2020/12/23 06:24:49;;;;;;;0.93;0.52;;;;;;;12.65;59.73;95808.94;4771004;30;20134;-41
2020/12/23 06:27:16;;;;;;;0.43;0.40;;;;;;;12.53;60.00;95806.28;4770795;30;20093;-41
2020/12/23 06:29:44;;;;;;;0.68;0.50;;;;;;;12.57;59.82;95812.59;4770531;30;20059;-41
2020/12/23 06:32:19;;;;;;;0.57;0.50;;;;;;;12.63;59.74;95801.13;4771053;29;20056;-41
2020/12/23 06:34:54;;;;;;;0.60;0.55;;;;;;;12.69;59.49;95809.03;4771202;30;20456;-42
2020/12/23 06:37:24;;;;;;;0.40;0.40;;;;;;;12.52;59.23;95783.00;4770021;30;20060;-42
2020/12/23 06:39:51;;;;;;;0.75;0.40;;;;;;;12.64;59.49;95807.34;4769562;30;20067;-41
2020/12/23 06:42:28;;;;;;;1.20;0.60;;;;;;;12.70;59.48;95811.38;4770616;30;20071;-43
2020/12/23 06:44:59;;;;;;;1.27;0.60;;;;;;;12.70;58.86;95799.72;4770839;30;20066;-39
2020/12/23 06:47:28;;;;;;;0.65;0.50;;;;;;;12.66;58.96;95805.06;4769964;30;20056;-43
2020/12/23 06:49:58;;;;;;;0.43;0.32;;;;;;;12.85;58.41;95797.03;4770691;30;20060;-40
2020/12/23 06:52:24;;;;;;;1.85;0.55;;;;;;;12.86;58.49;95809.47;4770104;30;20138;-42
2020/12/23 06:54:54;;;;;;;1.27;0.40;;;;;;;12.88;58.02;95800.97;4768919;30;20154;-43
2020/12/23 06:57:36;;;;;;;0.65;0.50;;;;;;;12.83;58.17;95806.66;4769503;30;20579;-43
2020/12/23 07:00:14;;;;;;;0.47;0.40;;;;;;;12.66;58.71;95794.22;4770623;30;20162;-49
2020/12/23 07:02:40;;;;;;;1.00;0.50;;;;;;;12.78;58.42;95799.56;4770098;30;20059;-43
2020/12/23 07:05:08;;;;;;;1.13;0.60;;;;;;;12.82;58.10;95808.59;4769942;30;20063;-43
2020/12/23 07:07:41;;;;;;;0.63;0.40;;;;;;;12.92;57.54;95809.22;4768649;30;20149;-43
2020/12/23 07:10:15;;;;;;;0.93;0.50;;;;;;;12.85;57.91;95810.59;4770055;30;20106;-44
2020/12/23 07:12:47;;;;;;;1.10;0.82;;;;;;;12.84;57.76;95806.31;4769860;30;20055;-43
2020/12/23 07:15:19;;;;;;;1.42;0.63;;;;;;;12.87;57.65;95796.69;4770154;30;20130;-43
2020/12/23 07:17:46;;;;;;;0.40;0.40;;;;;;;12.84;57.59;95803.59;4769337;30;20515;-44
2020/12/23 07:20:13;;;;;;;1.38;0.43;;;;;;;12.80;57.71;95810.88;4770087;30;20134;-43
2020/12/23 07:22:46;;;;;;;2.65;0.60;;;;;;;12.81;57.62;95820.59;4769869;30;20052;-45
2020/12/23 07:25:17;;;;;;;0.90;0.80;;;;;;;12.84;57.75;95813.69;4770007;30;20448;-43
2020/12/23 07:27:46;;;;;;;1.00;0.60;;;;;;;12.73;58.00;95804.47;4769169;30;20152;-44
2020/12/23 07:30:12;;;;;;;1.13;0.55;;;;;;;12.99;57.02;95809.38;4769683;29;20135;-43
2020/12/23 07:32:39;;;;;;;0.90;0.50;;;;;;;12.98;56.89;95811.31;4769443;30;20055;-43
2020/12/23 07:35:06;;;;;;;1.42;0.80;;;;;;;12.94;57.20;95804.22;4769544;30;20071;-44
2020/12/23 07:37:38;;;;;;;0.90;0.60;;;;;;;12.95;57.37;95800.38;4769107;30;20060;-44
2020/12/23 07:40:15;;;;;;;1.10;0.55;;;;;;;12.97;57.26;95803.53;4769798;30;20522;-42
2020/12/23 07:42:49;;;;;;;0.90;0.63;;;;;;;13.14;56.61;95805.09;4768237;30;20059;-43
2020/12/23 07:45:18;;;;;;;1.65;0.70;;;;;;;13.10;56.96;95805.00;4769520;30;20063;-42
2020/12/23 07:47:55;;;;;;;2.70;0.98;;;;;;;13.22;56.78;95810.34;4769351;29;20064;-41
2020/12/23 07:50:23;;;;;;;0.90;0.80;;;;;;;13.27;56.58;95820.97;4769754;30;20083;-45
2020/12/23 07:52:50;;;;;;;1.50;0.80;;;;;;;13.18;57.02;95814.91;4769282;30;20091;-44
2020/12/23 07:55:18;;;;;;;0.85;0.70;;;;;;;13.34;56.77;95823.06;4769247;30;20176;-44
2020/12/23 07:57:45;;;;;;;1.55;1.00;;;;;;;13.38;56.71;95815.00;4768878;30;20058;-42
2020/12/23 08:00:13;;;;;;;2.75;1.00;;;;;;;13.24;56.94;95821.69;4770007;30;20130;-40
2020/12/23 08:02:40;;;;;;;1.40;0.95;;;;;;;13.19;57.34;95816.47;4769263;30;20058;-44
2020/12/23 08:05:09;;;;;;;1.63;1.02;;;;;;;13.27;57.26;95822.91;4769154;30;20059;-43
2020/12/23 08:07:43;;;;;;;2.05;1.00;;;;;;;13.29;57.07;95821.41;4768444;30;20199;-44
2020/12/23 08:10:20;;;;;;;2.10;1.10;;;;;;;13.25;57.32;95817.03;4769202;30;20083;-43
2020/12/23 08:12:58;;;;;;;2.00;1.20;;;;;;;13.33;57.10;95822.28;4768989;30;20066;-43
2020/12/23 08:15:27;;;;;;;2.03;1.10;;;;;;;13.35;57.06;95819.19;4768767;29;20155;-44
2020/12/23 08:18:10;;;;;;;2.30;1.17;;;;;;;13.53;57.21;95814.19;4767227;30;20150;-44
2020/12/23 08:20:37;;;;;;;3.42;1.20;;;;;;;13.53;56.63;95814.97;4769181;30;20063;-43
2020/12/23 08:23:04;;;;;;;3.30;1.30;;;;;;;13.37;56.93;95808.78;4768941;30;20062;-41
2020/12/23 08:25:32;;;;;;;2.33;1.10;;;;;;;13.40;56.92;95821.66;4768945;29;20060;-41
2020/12/23 08:28:00;;;;;;;1.65;1.05;;;;;;;13.41;56.94;95820.50;4768269;30;20056;-44
2020/12/23 08:30:29;;;;;;;2.33;1.42;;;;;;;13.36;57.38;95811.84;4768645;30;20093;-44
2020/12/23 08:33:27;;;;;;;2.58;1.30;;;;;;;13.35;57.19;95818.41;4768618;29;20058;-45
2020/12/23 08:36:00;;;;;;;2.45;1.35;;;;;;;13.33;57.23;95814.13;4765595;30;20109;-41
2020/12/23 08:38:41;;;;;;;2.95;1.33;;;;;;;13.32;57.51;95815.28;4768297;30;20081;-45
2020/12/23 08:41:18;;;;;;;1.98;1.00;;;;;;;13.27;57.21;95807.38;4768692;30;20507;-44
2020/12/23 08:43:47;;;;;;;2.42;1.20;;;;;;;13.25;57.17;95809.66;4768584;30;20055;-45
2020/12/23 08:46:27;;;;;;;2.85;1.20;;;;;;;13.26;57.66;95813.97;4768655;29;20090;-42
2020/12/23 08:48:55;;;;;;;2.15;1.30;;;;;;;13.30;57.60;95806.69;4768217;30;20059;-45
2020/12/23 08:51:24;;;;;;;1.85;1.20;;;;;;;13.31;57.80;95807.47;4768301;29;20142;-45
2020/12/23 08:53:54;;;;;;;2.45;1.20;;;;;;;13.23;57.98;95811.94;4768490;30;20105;-41
2020/12/23 08:56:29;;;;;;;2.65;1.30;;;;;;;13.24;58.27;95807.28;4768504;30;20067;-43
2020/12/23 08:59:01;;;;;;;2.58;1.30;;;;;;;13.33;58.94;95805.97;4767843;30;20510;-44
2020/12/23 09:01:29;;;;;;;3.25;1.25;;;;;;;13.24;59.29;95807.28;4768561;30;20548;-44
2020/12/23 09:04:05;;;;;;;4.22;1.33;;;;;;;13.26;60.71;95815.91;4768343;30;20068;-44
2020/12/23 09:06:44;;;;;;;2.28;1.27;;;;;;;13.28;59.96;95808.97;4768465;30;20112;-43
2020/12/23 09:09:17;;;;;;;6.22;1.77;;;;;;;13.35;62.19;95802.91;4767702;30;20060;-43
2020/12/23 09:11:54;;;;;;;2.17;1.30;;;;;;;13.25;60.16;95798.00;4768276;30;20460;-43
2020/12/23 09:14:21;;;;;;;2.83;1.20;;;;;;;13.17;60.17;95802.47;4768283;30;20434;-44
2020/12/23 09:17:03;;;;;;;1.90;1.27;;;;;;;13.23;60.39;95801.06;4768382;30;20754;-43
2020/12/23 09:19:46;;;;;;;3.17;1.90;;;;;;;13.26;59.86;95794.16;4768028;30;20056;-46
2020/12/23 09:22:22;;;;;;;2.40;1.35;;;;;;;13.30;59.47;95803.19;4768565;29;20113;-45
2020/12/23 09:24:50;;;;;;;3.17;1.35;;;;;;;13.24;59.13;95791.78;4768390;30;20059;-43
2020/12/23 09:27:22;;;;;;;5.20;1.55;;;;;;;13.38;59.07;95793.25;4768091;30;20158;-42
2020/12/23 09:29:49;;;;;;;2.80;1.30;;;;;;;13.40;59.04;95791.00;4768365;30;20106;-43
2020/12/23 09:32:15;;;;;;;2.70;1.50;;;;;;;13.50;59.29;95793.94;4768248;29;20518;-45
2020/12/23 09:35:10;;;;;;;2.97;1.50;;;;;;;13.46;58.90;95793.06;4768325;30;20056;-45
2020/12/23 09:37:36;;;;;;;2.30;1.20;;;;;;;13.42;58.65;95796.84;4767614;30;20064;-44
2020/12/23 09:40:06;;;;;;;4.80;2.50;;;;;;;13.32;58.63;95798.16;4768079;30;20114;-43
2020/12/23 09:42:37;;;;;;;2.97;1.58;;;;;;;13.32;58.91;95803.59;4768200;30;20080;-42
2020/12/23 09:45:05;;;;;;;2.75;1.58;;;;;;;13.21;59.16;95795.19;4768208;30;20117;-42
2020/12/23 09:47:32;;;;;;;4.03;1.33;;;;;;;13.27;59.49;95803.88;4768958;30;20117;-40
2020/12/23 09:50:02;;;;;;;3.75;1.50;;;;;;;13.16;59.64;95790.03;4771385;30;20060;-42
2020/12/23 09:52:29;;;;;;;3.05;1.30;;;;;;;13.12;60.22;95786.41;4771073;30;20109;-42
2020/12/23 09:54:55;;;;;;;2.45;1.30;;;;;;;13.21;60.91;95789.75;4770234;30;20469;-43
2020/12/23 09:57:22;;;;;;;3.42;1.70;;;;;;;13.14;60.72;95788.78;4770579;30;20481;-42
2020/12/23 09:59:48;;;;;;;9.07;2.30;;;;;;;13.07;61.07;95776.63;4771295;30;20632;-42
2020/12/23 10:02:14;;;;;;;2.67;1.73;;;;;;;13.03;61.67;95764.09;4770762;30;20055;-44
2020/12/23 10:04:41;;;;;;;2.42;1.40;;;;;;;12.95;62.19;95746.84;4770980;30;20062;-42
2020/12/23 10:07:09;;;;;;;2.83;1.40;;;;;;;12.94;62.27;95739.06;4771206;30;20069;-43
2020/12/23 10:09:47;;;;;;;3.17;1.67;;;;;;;12.89;61.96;95726.50;4771500;30;20507;-40
2020/12/23 10:12:14;;;;;;;2.47;1.20;;;;;;;12.97;61.50;95738.34;4770792;30;20397;-40
2020/12/23 10:14:40;;;;;;;2.28;1.40;;;;;;;12.78;62.54;95734.41;4770929;30;20061;-43
2020/12/23 10:17:07;;;;;;;8.63;1.88;;;;;;;12.86;62.16;95727.22;4770841;30;20075;-44
2020/12/23 10:19:33;;;;;;;6.82;1.92;;;;;;;12.79;61.94;95725.13;4770165;30;20059;-44
2020/12/23 10:22:01;;;;;;;3.88;1.13;;;;;;;12.98;62.00;95720.91;4770554;30;20511;-43
2020/12/23 10:24:27;;;;;;;3.05;1.15;;;;;;;13.09;61.67;95724.66;4770730;30;20147;-43
2020/12/23 10:26:54;;;;;;;2.40;1.02;;;;;;;13.13;61.11;95725.53;4770819;30;20175;-41
2020/12/23 10:29:21;;;;;;;1.45;0.80;;;;;;;13.14;61.10;95718.97;4770257;29;20059;-45
2020/12/23 10:31:47;;;;;;;2.25;1.02;;;;;;;13.13;61.09;95717.38;4770776;30;20091;-41
2020/12/23 10:34:15;;;;;;;1.15;0.70;;;;;;;13.15;60.76;95717.81;4770719;30;20511;-41
2020/12/23 10:36:42;;;;;;;3.30;0.80;;;;;;;13.26;61.07;95708.00;4771099;30;20087;-41
2020/12/23 10:39:08;;;;;;;5.47;1.00;;;;;;;13.34;60.50;95703.50;4770208;29;20052;-41
2020/12/23 10:41:35;;;;;;;3.72;1.00;;;;;;;13.41;60.68;95700.16;4770909;29;20127;-43
2020/12/23 10:44:01;;;;;;;3.63;1.08;;;;;;;13.58;59.71;95702.44;4770703;30;20064;-42
2020/12/23 10:46:27;;;;;;;2.22;1.33;;;;;;;13.58;60.45;95699.72;4770490;30;20143;-39
2020/12/23 10:48:54;;;;;;;2.53;1.05;;;;;;;13.71;60.36;95698.44;4769814;30;20507;-40
2020/12/23 10:51:20;;;;;;;3.38;1.25;;;;;;;13.83;60.16;95696.75;4770296;30;20135;-46
2020/12/23 10:53:47;;;;;;;4.10;1.52;;;;;;;13.86;59.67;95690.59;4770389;30;20086;-40
2020/12/23 10:56:13;;;;;;;2.65;1.30;;;;;;;13.73;60.05;95685.28;4770108;30;20146;-40
2020/12/23 10:58:39;;;;;;;3.92;1.25;;;;;;;13.61;59.83;95685.44;4768757;30;20071;-43
2020/12/23 11:01:06;;;;;;;1.60;0.95;;;;;;;13.59;59.66;95681.53;4770404;30;20060;-46
2020/12/23 11:03:36;;;;;;;3.42;1.20;;;;;;;13.69;59.72;95689.09;4769078;30;20047;-42
2020/12/23 11:06:03;;;;;;;4.47;1.55;;;;;;;13.73;59.28;95681.78;4770128;30;20071;-44
2020/12/23 11:08:29;;;;;;;2.80;1.60;;;;;;;13.77;59.57;95691.56;4769736;30;20128;-43
2020/12/23 11:10:56;;;;;;;3.72;1.58;;;;;;;13.80;58.99;95684.66;4769817;30;20194;-42
2020/12/23 11:13:22;;;;;;;1.98;1.10;;;;;;;13.88;58.67;95672.00;4769920;30;20054;-43
2020/12/23 11:15:49;;;;;;;5.07;1.60;;;;;;;13.79;58.45;95678.41;4769965;30;20062;-42
2020/12/23 11:18:15;;;;;;;2.83;1.50;;;;;;;13.76;58.30;95676.41;4769473;30;20508;-43
2020/12/23 11:20:41;;;;;;;2.67;1.73;;;;;;;13.79;58.27;95670.25;4769907;30;20532;-43
2020/12/23 11:23:08;;;;;;;2.95;1.85;;;;;;;13.79;58.50;95677.63;4770279;30;20463;-43
2020/12/23 11:25:34;;;;;;;5.20;2.03;;;;;;;13.83;58.30;95670.34;4769690;30;20060;-46
2020/12/23 11:28:00;;;;;;;2.72;1.90;;;;;;;13.77;58.73;95667.09;4769250;30;20426;-41
2020/12/23 11:30:27;;;;;;;3.28;1.60;;;;;;;13.79;58.59;95653.94;4770236;30;20067;-42
2020/12/23 11:32:53;;;;;;;2.53;1.60;;;;;;;13.91;57.78;95654.94;4769260;30;20131;-42
2020/12/23 11:35:19;;;;;;;4.07;1.77;;;;;;;13.90;57.97;95648.72;4769618;30;20138;-44
2020/12/23 11:37:46;;;;;;;3.67;1.80;;;;;;;13.96;57.77;95649.22;4767717;30;20146;-42
2020/12/23 11:40:25;;;;;;;3.53;1.80;;;;;;;14.03;57.28;95627.56;4769360;30;20059;-43